Time;durP1;ratioP1;P1;durP2;ratioP2;P2;SDS_P1;SDS_P2;PMS_P1;PMS_P2;Temp;Humidity;BMP_temperature;BMP_pressure;BME280_temperature;BME280_humidity;BME280_pressure;Samples;Min_cycle;Max_cycle;Signal;HPM_P1;HPM_P2
2022/04/06 00:01:43;;;;;;;16.75;10.02;;;;;;;7.24;44.35;94803.06;4988635;28;20478;-60
2022/04/06 00:04:09;;;;;;;16.52;10.70;;;;;;;7.31;43.85;94824.94;4988097;28;20036;-60
2022/04/06 00:06:34;;;;;;;14.55;9.93;;;;;;;7.07;43.72;94811.66;4988563;28;20109;-58
2022/04/06 00:09:00;;;;;;;17.67;10.45;;;;;;;7.03;43.63;94819.59;4988562;28;20088;-58
2022/04/06 00:11:25;;;;;;;13.73;10.00;;;;;;;6.94;43.52;94823.47;4987515;28;20085;-57
2022/04/06 00:13:51;;;;;;;16.85;10.90;;;;;;;6.99;43.75;94836.88;4987566;28;20497;-59
2022/04/06 00:16:16;;;;;;;14.95;10.45;;;;;;;6.98;44.02;94837.75;4988192;28;20031;-60
2022/04/06 00:18:42;;;;;;;12.63;8.32;;;;;;;7.09;49.23;94832.91;4988627;28;20454;-62
2022/04/06 00:21:07;;;;;;;10.52;7.88;;;;;;;7.17;52.28;94840.22;4988649;28;20038;-63
2022/04/06 00:23:33;;;;;;;15.80;8.43;;;;;;;7.01;51.81;94804.28;4988505;28;20058;-59
2022/04/06 00:25:58;;;;;;;14.93;8.80;;;;;;;7.16;52.11;94831.66;4988520;28;20034;-60
2022/04/06 00:28:24;;;;;;;16.50;11.55;;;;;;;7.16;48.13;94838.53;4988073;28;20106;-58
2022/04/06 00:30:49;;;;;;;18.42;12.05;;;;;;;6.93;45.67;94822.63;4988297;28;20035;-58
2022/04/06 00:33:15;;;;;;;15.25;11.63;;;;;;;6.91;45.33;94841.56;4988327;28;20103;-59
2022/04/06 00:35:40;;;;;;;18.88;12.60;;;;;;;6.79;45.47;94825.09;4988388;28;20054;-60
2022/04/06 00:38:07;;;;;;;20.20;12.35;;;;;;;6.50;45.42;94778.69;4988291;28;20113;-61
2022/04/06 00:40:34;;;;;;;18.95;12.13;;;;;;;6.89;45.43;94841.63;4987744;28;20080;-60
2022/04/06 00:43:04;;;;;;;19.75;13.40;;;;;;;6.73;45.55;94839.03;4988046;28;20065;-59
2022/04/06 00:45:30;;;;;;;19.23;12.70;;;;;;;6.61;46.58;94837.09;4988189;28;20137;-60
2022/04/06 00:47:55;;;;;;;20.10;13.85;;;;;;;6.57;46.98;94845.81;4988453;28;20569;-60
2022/04/06 00:50:21;;;;;;;19.73;12.32;;;;;;;6.59;46.48;94849.13;4987907;28;20040;-62
2022/04/06 00:52:48;;;;;;;18.42;11.68;;;;;;;6.44;46.79;94837.91;4988033;28;20406;-65
2022/04/06 00:55:15;;;;;;;20.42;12.95;;;;;;;6.21;46.41;94801.47;4988376;28;20019;-59
2022/04/06 00:57:41;;;;;;;16.67;11.30;;;;;;;6.49;47.03;94840.25;4988204;28;20054;-65
2022/04/06 01:00:08;;;;;;;15.57;10.63;;;;;;;6.28;46.53;94809.69;4986824;28;20120;-60
2022/04/06 01:02:34;;;;;;;15.23;9.95;;;;;;;6.31;46.37;94832.56;4987667;28;20038;-58
2022/04/06 01:05:00;;;;;;;17.50;10.60;;;;;;;6.37;46.38;94857.88;4988047;28;20046;-57
2022/04/06 01:07:26;;;;;;;18.30;11.38;;;;;;;6.16;46.65;94838.44;4988177;28;20031;-66
2022/04/06 01:09:52;;;;;;;16.70;9.80;;;;;;;6.19;46.71;94843.44;4988025;28;20066;-61
2022/04/06 01:12:18;;;;;;;18.52;10.70;;;;;;;6.18;46.88;94862.25;4988235;28;20473;-59
2022/04/06 01:14:44;;;;;;;14.48;9.40;;;;;;;5.51;46.96;94751.94;4987148;28;20069;-64
2022/04/06 01:17:10;;;;;;;15.18;9.98;;;;;;;6.09;46.77;94857.59;4988268;28;20105;-62
2022/04/06 01:19:37;;;;;;;15.10;10.35;;;;;;;5.77;47.59;94818.94;4988258;28;20038;-63
2022/04/06 01:22:11;;;;;;;18.73;10.73;;;;;;;6.05;47.47;94855.16;4988189;28;20038;-62
2022/04/06 01:24:37;;;;;;;15.65;10.10;;;;;;;6.07;47.51;94858.47;4987898;28;20153;-61
2022/04/06 01:27:04;;;;;;;16.23;10.85;;;;;;;6.16;47.81;94857.19;4990931;28;20077;-60
2022/04/06 01:29:30;;;;;;;16.35;10.85;;;;;;;6.10;48.63;94831.06;4991364;28;20447;-59
2022/04/06 01:31:55;;;;;;;19.08;11.00;;;;;;;6.38;48.77;94851.06;4991245;28;20038;-58
2022/04/06 01:34:21;;;;;;;17.17;10.48;;;;;;;6.51;48.81;94843.56;4991451;28;20026;-58
2022/04/06 01:36:47;;;;;;;14.85;11.27;;;;;;;6.45;48.85;94831.91;4991312;28;20106;-60
2022/04/06 01:39:12;;;;;;;24.58;12.45;;;;;;;6.52;48.74;94847.78;4990878;28;20030;-58
2022/04/06 01:41:38;;;;;;;14.88;9.88;;;;;;;6.42;49.19;94839.72;4991130;28;20084;-61
2022/04/06 01:44:06;;;;;;;16.58;9.75;;;;;;;6.44;49.62;94845.59;4991044;28;20474;-60
2022/04/06 01:46:33;;;;;;;17.42;10.40;;;;;;;6.51;50.83;94843.56;4990987;28;20814;-59
2022/04/06 01:54:27;;;;;;;18.90;9.98;;;;;;;6.33;51.56;94845.28;4991322;28;20407;-59
2022/04/06 01:56:53;;;;;;;14.52;9.75;;;;;;;6.30;51.91;94859.09;4990608;28;20023;-61
2022/04/06 01:59:18;;;;;;;15.55;11.02;;;;;;;6.30;51.54;94851.41;4990701;28;20513;-59
2022/04/06 02:01:48;;;;;;;15.48;10.18;;;;;;;6.24;51.75;94856.81;4990775;28;20038;-60
2022/04/06 02:04:14;;;;;;;16.50;11.70;;;;;;;6.17;51.64;94858.03;4990486;28;20026;-59
2022/04/06 02:06:40;;;;;;;13.57;10.70;;;;;;;6.12;52.54;94862.56;4990739;28;20037;-61
2022/04/06 02:09:05;;;;;;;18.98;11.32;;;;;;;6.09;51.69;94865.25;4990766;28;20085;-58
2022/04/06 02:11:31;;;;;;;21.08;12.57;;;;;;;5.67;50.94;94829.63;4990573;28;20030;-59
2022/04/06 02:13:57;;;;;;;22.02;13.38;;;;;;;5.82;50.96;94874.13;4990583;28;20088;-59
2022/04/06 02:16:23;;;;;;;17.60;13.48;;;;;;;5.75;51.60;94877.03;4990027;28;20025;-58
2022/04/06 02:18:49;;;;;;;20.27;13.07;;;;;;;5.68;51.29;94858.59;4990726;28;20034;-59
2022/04/06 02:21:15;;;;;;;22.88;13.82;;;;;;;5.62;51.74;94871.66;4990783;28;20034;-59
2022/04/06 02:23:40;;;;;;;24.33;13.60;;;;;;;5.28;51.78;94825.44;4990503;28;20024;-58
2022/04/06 02:26:06;;;;;;;23.52;13.25;;;;;;;5.42;52.15;94859.78;4990153;28;20419;-59
2022/04/06 02:28:32;;;;;;;23.20;13.93;;;;;;;5.29;52.04;94831.38;4989945;28;20618;-58
2022/04/06 02:30:57;;;;;;;23.77;13.95;;;;;;;5.57;52.80;94873.59;4990001;28;20113;-61
2022/04/06 02:33:22;;;;;;;23.10;13.98;;;;;;;5.00;52.70;94777.31;4990358;28;20023;-60
2022/04/06 02:35:48;;;;;;;20.10;13.57;;;;;;;5.41;52.72;94853.00;4990289;28;20026;-58
2022/04/06 02:38:13;;;;;;;24.45;13.85;;;;;;;5.61;52.68;94882.81;4989113;28;20089;-60
2022/04/06 02:40:39;;;;;;;23.98;14.75;;;;;;;5.46;52.37;94858.72;4989750;28;20109;-59
2022/04/06 02:43:04;;;;;;;23.73;14.10;;;;;;;5.53;52.84;94847.34;4989701;28;20030;-58
2022/04/06 02:45:30;;;;;;;18.63;13.70;;;;;;;5.63;52.35;94858.78;4989815;28;20037;-60
2022/04/06 02:47:55;;;;;;;18.33;12.70;;;;;;;5.70;53.15;94849.09;4989856;28;20141;-59
2022/04/06 02:50:21;;;;;;;23.15;13.70;;;;;;;5.89;53.18;94877.22;4989904;28;20089;-58
2022/04/06 02:52:47;;;;;;;21.10;13.85;;;;;;;5.93;53.00;94875.34;4989345;28;20473;-58
2022/04/06 02:55:13;;;;;;;20.23;12.48;;;;;;;5.92;52.99;94882.22;4990019;28;20109;-58
2022/04/06 02:57:39;;;;;;;22.02;13.30;;;;;;;5.87;53.76;94895.22;4989623;28;20414;-59
2022/04/06 03:00:05;;;;;;;20.75;13.45;;;;;;;5.84;53.22;94889.41;4989727;28;20104;-58
2022/04/06 03:02:31;;;;;;;21.13;13.07;;;;;;;5.71;54.00;94897.66;4989455;28;20033;-57
2022/04/06 03:04:56;;;;;;;18.95;13.13;;;;;;;5.64;54.05;94901.41;4989798;28;20022;-58
2022/04/06 03:07:22;;;;;;;25.05;13.48;;;;;;;5.19;53.75;94822.47;4989966;28;20018;-60
2022/04/06 03:09:47;;;;;;;19.98;13.23;;;;;;;5.66;53.90;94897.03;4989622;28;20041;-59
2022/04/06 03:12:13;;;;;;;22.90;14.15;;;;;;;5.63;54.30;94899.72;4989846;28;20034;-58
2022/04/06 03:14:38;;;;;;;20.50;14.65;;;;;;;5.49;54.57;94902.91;4989132;28;20261;-59
2022/04/06 03:17:04;;;;;;;19.60;12.90;;;;;;;5.30;54.83;94902.91;4989464;28;20264;-60
2022/04/06 03:19:30;;;;;;;20.38;14.13;;;;;;;5.12;55.38;94898.59;4989664;28;20109;-62
2022/04/06 03:21:55;;;;;;;18.10;12.70;;;;;;;5.04;55.97;94904.03;4989579;28;20041;-58
2022/04/06 03:24:21;;;;;;;17.05;12.52;;;;;;;4.42;55.78;94811.31;4989486;28;20520;-58
2022/04/06 03:26:46;;;;;;;24.00;13.98;;;;;;;5.00;55.56;94909.34;4988846;28;20026;-61
2022/04/06 03:29:12;;;;;;;21.13;12.38;;;;;;;4.89;55.75;94894.47;4989600;28;20031;-60
2022/04/06 03:31:38;;;;;;;18.23;12.38;;;;;;;4.84;56.15;94888.72;4989668;28;20414;-60
2022/04/06 03:34:03;;;;;;;17.75;11.35;;;;;;;4.86;55.80;94908.19;4989329;28;20042;-63
2022/04/06 03:36:29;;;;;;;17.90;11.15;;;;;;;4.76;56.38;94910.31;4989469;28;20492;-58
2022/04/06 03:38:55;;;;;;;15.75;10.27;;;;;;;4.64;56.29;94912.53;4988652;28;20062;-60
2022/04/06 03:41:20;;;;;;;14.07;10.23;;;;;;;4.37;56.44;94889.81;4989169;28;20030;-58
2022/04/06 03:43:46;;;;;;;16.75;10.75;;;;;;;4.55;57.15;94918.88;4989198;28;20027;-62
2022/04/06 03:46:11;;;;;;;18.17;10.63;;;;;;;4.57;56.55;94922.19;4988897;28;20513;-58
2022/04/06 03:48:37;;;;;;;13.68;10.40;;;;;;;4.55;56.75;94926.53;4989351;28;20039;-61
2022/04/06 03:51:03;;;;;;;19.77;9.98;;;;;;;4.54;56.24;94927.41;4988492;28;20038;-59
2022/04/06 03:53:28;;;;;;;14.40;9.15;;;;;;;4.22;56.41;94878.50;4988908;28;20026;-63
2022/04/06 03:55:54;;;;;;;13.50;9.88;;;;;;;4.52;56.33;94930.03;4989176;28;20041;-62
2022/04/06 03:58:19;;;;;;;15.50;9.98;;;;;;;4.55;55.83;94929.09;4989028;28;20022;-58
2022/04/06 04:00:45;;;;;;;16.33;10.30;;;;;;;4.53;55.30;94920.66;4989060;28;20042;-61
2022/04/06 04:03:10;;;;;;;16.35;9.55;;;;;;;4.57;55.54;94938.31;4988457;28;20049;-59
2022/04/06 04:05:36;;;;;;;16.17;9.88;;;;;;;4.21;55.30;94864.06;4988784;28;20041;-59
2022/04/06 04:08:02;;;;;;;16.45;10.45;;;;;;;4.63;55.30;94937.25;4988833;28;20633;-61
2022/04/06 04:10:28;;;;;;;14.18;9.55;;;;;;;4.46;55.11;94920.09;4989150;28;20049;-56
2022/04/06 04:12:53;;;;;;;11.57;8.77;;;;;;;4.21;55.66;94882.78;4989024;28;20502;-58
2022/04/06 04:15:18;;;;;;;24.25;9.82;;;;;;;4.65;55.21;94934.66;4988323;28;20157;-59
2022/04/06 04:17:44;;;;;;;17.65;10.45;;;;;;;4.71;54.88;94948.00;4988970;28;20050;-61
2022/04/06 04:20:10;;;;;;;13.95;9.13;;;;;;;4.73;55.07;94948.75;4998706;28;20105;-57
2022/04/06 04:22:36;;;;;;;16.23;10.50;;;;;;;4.92;54.64;94946.28;5008773;28;20061;-60
2022/04/06 04:25:01;;;;;;;18.38;10.38;;;;;;;5.04;54.83;94939.00;5008416;28;20513;-58
2022/04/06 04:27:27;;;;;;;18.98;10.82;;;;;;;5.21;54.64;94948.50;5007951;28;20030;-56
2022/04/06 04:29:52;;;;;;;20.17;12.07;;;;;;;5.07;54.49;94941.44;5008206;28;20419;-65
2022/04/06 04:32:17;;;;;;;14.25;9.02;;;;;;;5.12;54.77;94952.28;5008466;28;20040;-58
2022/04/06 04:34:43;;;;;;;12.82;8.45;;;;;;;5.03;54.02;94958.59;5002830;28;20025;-57
2022/04/06 04:37:09;;;;;;;14.95;8.95;;;;;;;4.88;54.55;94946.47;4988414;28;20030;-60
2022/04/06 04:39:34;;;;;;;16.88;9.48;;;;;;;4.97;54.16;94966.53;4988534;28;20414;-64
2022/04/06 04:42:01;;;;;;;14.57;8.88;;;;;;;4.96;53.80;94975.09;5008055;28;20105;-60
2022/04/06 04:44:26;;;;;;;15.30;8.13;;;;;;;4.91;54.19;94959.94;5007963;28;20512;-62
2022/04/06 04:46:52;;;;;;;17.02;9.30;;;;;;;4.90;54.65;94970.22;5007750;28;20053;-63
2022/04/06 04:49:17;;;;;;;13.82;9.50;;;;;;;4.97;54.24;94976.75;5007977;28;20042;-58
2022/04/06 04:51:43;;;;;;;13.80;9.25;;;;;;;4.96;54.81;94957.19;5008044;28;20030;-60
2022/04/06 04:54:09;;;;;;;16.25;9.60;;;;;;;5.08;53.99;94981.41;5008044;28;20026;-65
2022/04/06 04:56:34;;;;;;;17.33;11.85;;;;;;;4.96;53.68;94942.69;5003132;28;20034;-58
2022/04/06 04:59:00;;;;;;;20.15;11.35;;;;;;;5.11;53.38;94989.78;4988230;28;20033;-62
2022/04/06 05:01:26;;;;;;;19.63;11.48;;;;;;;5.15;54.16;94993.88;4990951;28;20037;-59
2022/04/06 05:03:51;;;;;;;18.70;11.48;;;;;;;5.30;53.46;94997.50;4991747;28;20133;-66
2022/04/06 05:06:17;;;;;;;21.13;12.00;;;;;;;5.41;53.45;94997.06;4992637;28;20018;-58
2022/04/06 05:08:43;;;;;;;22.50;12.00;;;;;;;5.52;53.24;95005.06;4992273;28;20383;-60
2022/04/06 05:11:08;;;;;;;18.38;12.95;;;;;;;5.68;52.11;95012.09;4991964;28;20034;-61
2022/04/06 05:13:34;;;;;;;20.75;13.15;;;;;;;5.80;51.85;95013.28;4992020;28;20718;-58
2022/04/06 05:16:00;;;;;;;24.00;12.77;;;;;;;5.79;51.56;95002.22;4994843;28;20414;-58
2022/04/06 05:18:29;;;;;;;25.05;13.73;;;;;;;5.84;51.28;95000.28;5011553;28;20037;-59
2022/04/06 05:20:55;;;;;;;21.65;13.82;;;;;;;5.82;51.10;94985.88;5011357;28;20448;-60
2022/04/06 05:23:21;;;;;;;26.10;13.38;;;;;;;6.13;51.13;95023.75;5011662;28;20022;-60
2022/04/06 05:25:46;;;;;;;26.25;13.90;;;;;;;6.08;50.59;94974.50;5011333;28;20022;-59
2022/04/06 05:28:11;;;;;;;25.15;13.55;;;;;;;6.53;50.54;95024.47;5010710;28;20058;-59
2022/04/06 05:30:41;;;;;;;22.20;14.25;;;;;;;6.60;49.96;95018.16;5008068;28;20034;-60
2022/04/06 05:33:07;;;;;;;20.70;12.82;;;;;;;6.70;49.96;95020.28;4999838;28;20026;-58
2022/04/06 05:35:33;;;;;;;23.95;13.20;;;;;;;6.78;49.41;95028.44;5001628;28;20030;-60
2022/04/06 05:37:58;;;;;;;21.15;12.88;;;;;;;6.91;49.20;95026.94;5001312;28;20097;-61
2022/04/06 05:40:24;;;;;;;21.90;13.07;;;;;;;6.78;49.36;94993.38;4999320;28;20101;-63
2022/04/06 05:42:50;;;;;;;17.75;12.60;;;;;;;7.17;49.18;95027.41;5001574;28;20018;-59
2022/04/06 05:45:16;;;;;;;20.23;13.70;;;;;;;7.26;48.84;95014.13;5000900;28;20727;-57
2022/04/06 05:47:45;;;;;;;19.73;12.85;;;;;;;7.40;48.71;95028.84;4999620;28;20056;-61
2022/04/06 05:50:13;;;;;;;18.33;12.73;;;;;;;7.47;49.06;95021.66;4993709;28;20041;-65
2022/04/06 05:52:39;;;;;;;18.58;11.82;;;;;;;7.60;48.87;95024.44;4991016;28;20439;-58
2022/04/06 05:55:05;;;;;;;20.65;12.65;;;;;;;7.76;48.53;95027.88;4994801;28;20422;-59
2022/04/06 05:57:31;;;;;;;19.02;13.48;;;;;;;7.95;48.43;95032.03;4994141;28;20026;-61
2022/04/06 05:59:56;;;;;;;21.15;13.32;;;;;;;8.08;48.03;95028.75;5003289;28;20069;-59
2022/04/06 06:02:24;;;;;;;18.60;12.73;;;;;;;7.85;48.52;95009.41;5002274;28;20031;-62
2022/04/06 06:04:51;;;;;;;20.17;13.15;;;;;;;7.90;48.82;95034.84;4997649;28;20168;-57
2022/04/06 06:07:19;;;;;;;17.40;12.45;;;;;;;7.62;48.11;94963.59;4995159;28;20741;-60
2022/04/06 06:09:44;;;;;;;19.67;12.73;;;;;;;8.17;47.65;95024.03;4999013;28;20033;-59
2022/04/06 06:12:10;;;;;;;25.48;14.05;;;;;;;8.22;47.50;95019.47;4986441;28;20088;-58
2022/04/06 06:14:35;;;;;;;20.45;13.40;;;;;;;8.39;46.48;95011.66;4987600;28;20034;-58
2022/04/06 06:17:01;;;;;;;24.33;14.85;;;;;;;8.69;46.58;95022.97;5004077;28;20160;-57
2022/04/06 06:19:26;;;;;;;19.80;13.93;;;;;;;8.69;46.26;94999.81;5000872;28;20034;-60
2022/04/06 06:21:53;;;;;;;21.55;15.00;;;;;;;8.94;46.12;95022.44;4992272;28;20030;-59
2022/04/06 06:24:19;;;;;;;29.02;15.07;;;;;;;9.01;46.06;95027.13;4990414;28;20478;-58
2022/04/06 06:26:44;;;;;;;20.88;14.23;;;;;;;9.13;46.12;95024.78;4998236;28;20111;-59
2022/04/06 06:29:11;;;;;;;24.95;14.07;;;;;;;9.19;46.10;95024.44;5006735;28;20065;-57
2022/04/06 06:31:37;;;;;;;22.63;13.73;;;;;;;8.75;45.79;94946.31;4994368;28;20795;-61
2022/04/06 06:34:03;;;;;;;20.15;11.70;;;;;;;9.35;45.75;95014.91;5001185;28;20090;-59
2022/04/06 06:36:28;;;;;;;22.63;10.95;;;;;;;9.52;45.05;95023.38;5008484;28;20087;-60
2022/04/06 06:38:55;;;;;;;23.50;12.57;;;;;;;9.55;45.86;95025.78;4996702;28;20180;-61
2022/04/06 06:41:22;;;;;;;32.15;11.18;;;;;;;9.67;45.72;95021.66;4989749;28;20030;-62
2022/04/06 06:43:48;;;;;;;16.60;10.98;;;;;;;9.59;46.46;95022.09;5007039;28;20113;-60
2022/04/06 06:46:18;;;;;;;17.83;11.38;;;;;;;9.53;46.87;95014.75;5004422;28;20050;-58
2022/04/06 06:48:44;;;;;;;21.77;12.05;;;;;;;9.34;46.92;94972.06;5009780;28;20026;-63
2022/04/06 06:51:10;;;;;;;27.58;12.77;;;;;;;9.64;46.31;95014.94;5003719;28;20042;-58
2022/04/06 06:53:36;;;;;;;21.35;13.88;;;;;;;9.77;46.68;95015.03;5004666;28;20048;-58
2022/04/06 06:56:01;;;;;;;22.60;13.43;;;;;;;9.83;46.58;95017.25;5006457;28;20034;-58
2022/04/06 06:58:27;;;;;;;27.52;14.48;;;;;;;9.77;46.38;94970.44;5000851;28;20549;-58
2022/04/06 07:00:52;;;;;;;23.38;14.32;;;;;;;10.06;45.88;95010.69;5002290;28;20608;-58
2022/04/06 07:03:18;;;;;;;22.60;13.85;;;;;;;10.11;45.98;95010.41;5004710;28;20034;-56
2022/04/06 07:05:45;;;;;;;25.88;13.80;;;;;;;10.22;45.27;95005.44;5000922;28;20099;-58
2022/04/06 07:08:11;;;;;;;21.67;14.80;;;;;;;10.29;45.33;95014.44;5005674;28;20025;-61
2022/04/06 07:10:36;;;;;;;25.73;15.95;;;;;;;10.28;44.94;95010.22;5005597;28;20045;-57
2022/04/06 07:13:02;;;;;;;25.83;14.68;;;;;;;10.28;44.98;95001.63;5003698;28;20022;-58
2022/04/06 07:15:28;;;;;;;23.63;15.02;;;;;;;10.28;45.76;95002.47;5004220;28;20029;-58
2022/04/06 07:17:58;;;;;;;23.95;15.82;;;;;;;10.18;45.69;94972.22;4997662;28;20034;-60
2022/04/06 07:20:29;;;;;;;22.13;15.10;;;;;;;10.46;44.90;94999.69;5001045;28;20025;-60
2022/04/06 07:22:54;;;;;;;22.17;15.57;;;;;;;10.36;44.61;94960.78;5000641;28;20502;-59
2022/04/06 07:25:20;;;;;;;21.48;14.65;;;;;;;10.54;45.36;94970.84;5005599;28;20037;-60
2022/04/06 07:27:46;;;;;;;21.48;14.77;;;;;;;10.80;44.88;95008.69;5005002;28;20458;-59
2022/04/06 07:30:13;;;;;;;26.27;16.85;;;;;;;10.93;44.28;95007.91;5005173;28;20046;-58
2022/04/06 07:32:39;;;;;;;25.85;16.65;;;;;;;10.76;43.92;94965.16;5003140;28;20044;-59
2022/04/06 07:35:06;;;;;;;26.88;15.35;;;;;;;11.22;43.28;94999.09;4999179;28;20418;-57
2022/04/06 07:37:39;;;;;;;24.17;15.85;;;;;;;11.27;43.64;95003.16;4999765;28;20029;-57
2022/04/06 07:40:07;;;;;;;36.25;17.75;;;;;;;11.35;43.21;95006.06;4997659;28;20038;-61
2022/04/06 07:42:35;;;;;;;29.48;18.33;;;;;;;11.51;42.90;95006.69;5000263;28;20026;-61
2022/04/06 07:45:04;;;;;;;21.45;13.93;;;;;;;11.47;42.90;95002.63;4997435;28;20026;-60
2022/04/06 07:47:33;;;;;;;22.83;14.32;;;;;;;11.38;42.34;94969.72;5004910;28;20050;-62
2022/04/06 07:49:58;;;;;;;20.42;12.80;;;;;;;11.59;42.26;94995.81;5000148;28;20042;-62
2022/04/06 07:52:25;;;;;;;20.55;11.70;;;;;;;11.82;41.32;95008.94;5002090;28;20037;-62
2022/04/06 07:54:51;;;;;;;18.10;10.88;;;;;;;11.88;41.43;95008.53;5004994;28;20054;-58
2022/04/06 07:57:16;;;;;;;13.20;9.95;;;;;;;11.94;40.65;95005.56;5001145;28;20120;-58
2022/04/06 07:59:41;;;;;;;16.90;10.60;;;;;;;11.81;40.61;94978.88;5004613;28;20052;-61
2022/04/06 08:02:07;;;;;;;16.38;10.60;;;;;;;11.86;41.07;95006.06;5003326;28;20075;-61
2022/04/06 08:04:32;;;;;;;17.75;11.90;;;;;;;11.85;41.13;94994.06;5004106;28;20033;-62
2022/04/06 08:06:58;;;;;;;17.00;11.43;;;;;;;11.98;41.21;94990.66;5004315;28;20513;-61
2022/04/06 08:09:23;;;;;;;17.00;11.15;;;;;;;12.01;41.09;95000.81;5001160;28;20030;-59
2022/04/06 08:11:50;;;;;;;21.90;11.70;;;;;;;12.10;41.06;94994.97;5003522;28;20453;-59
2022/04/06 08:14:15;;;;;;;25.60;13.50;;;;;;;12.26;41.11;94994.75;5005181;28;20029;-61
2022/04/06 08:16:41;;;;;;;19.25;12.10;;;;;;;12.43;40.37;94998.72;5003846;28;20509;-59
2022/04/06 08:19:06;;;;;;;21.00;13.00;;;;;;;12.49;40.35;94993.97;4999786;28;20092;-59
2022/04/06 08:21:32;;;;;;;21.45;13.90;;;;;;;12.45;40.81;94991.69;4974081;28;20188;-61
2022/04/06 08:23:57;;;;;;;20.38;12.40;;;;;;;12.56;39.61;94994.34;5004194;28;20029;-59
2022/04/06 08:26:23;;;;;;;20.67;11.73;;;;;;;12.45;39.64;94948.56;5002742;28;20034;-54
2022/04/06 08:28:49;;;;;;;22.85;13.02;;;;;;;12.61;39.46;94952.63;4986499;28;20029;-64
2022/04/06 08:31:15;;;;;;;19.35;11.90;;;;;;;13.13;38.74;94987.63;4996913;28;20469;-57
2022/04/06 08:33:40;;;;;;;18.95;13.35;;;;;;;13.30;38.24;94989.00;4992373;28;20041;-58
2022/04/06 08:36:06;;;;;;;21.25;13.80;;;;;;;13.32;38.37;94984.56;4999801;28;20026;-61
2022/04/06 08:38:32;;;;;;;21.08;11.57;;;;;;;13.26;38.11;94982.38;5002438;28;20022;-60
2022/04/06 08:40:58;;;;;;;19.02;11.25;;;;;;;13.04;38.56;94950.31;5002135;28;20029;-59
2022/04/06 08:43:24;;;;;;;17.52;11.48;;;;;;;13.02;38.58;94935.84;5000369;28;20049;-62
2022/04/06 08:45:50;;;;;;;15.25;10.38;;;;;;;13.46;37.17;94977.50;5003327;28;20037;-62
2022/04/06 08:48:18;;;;;;;18.70;11.88;;;;;;;13.53;36.94;94983.91;5002575;28;20038;-62
2022/04/06 08:50:45;;;;;;;19.88;12.02;;;;;;;13.66;37.12;94979.44;5001288;28;20401;-58
2022/04/06 08:53:11;;;;;;;21.90;12.63;;;;;;;13.70;36.88;94962.69;5001282;28;20053;-59
2022/04/06 08:55:36;;;;;;;19.58;11.23;;;;;;;13.85;36.53;94965.88;5008131;28;20556;-59
2022/04/06 08:58:03;;;;;;;16.73;11.02;;;;;;;13.57;36.95;94920.53;5008300;28;20026;-60
2022/04/06 09:00:29;;;;;;;16.85;10.48;;;;;;;13.86;36.45;94958.94;5002079;28;20167;-53
2022/04/06 09:02:55;;;;;;;14.32;10.57;;;;;;;13.21;35.91;94847.25;5004303;28;20045;-59
2022/04/06 09:05:22;;;;;;;18.02;10.48;;;;;;;13.97;35.80;94941.63;5005098;28;20034;-57
2022/04/06 09:07:51;;;;;;;15.82;10.23;;;;;;;13.88;34.88;94903.44;5007946;28;20030;-58
2022/04/06 09:10:28;;;;;;;20.10;10.18;;;;;;;14.55;34.46;94948.34;5003785;28;20041;-60
2022/04/06 09:13:07;;;;;;;15.88;10.27;;;;;;;14.83;32.79;94891.66;5003484;28;20029;-58
2022/04/06 09:15:35;;;;;;;14.63;9.52;;;;;;;18.28;28.45;94941.22;4996026;28;20578;-59
2022/04/06 09:18:04;;;;;;;14.55;9.75;;;;;;;21.44;24.22;94914.63;4991704;28;20038;-57
2022/04/06 09:20:31;;;;;;;20.98;13.80;;;;;;;23.46;21.05;94905.25;4991258;28;20041;-60
2022/04/06 09:23:00;;;;;;;14.88;8.90;;;;;;;25.50;18.92;94922.06;4990783;28;20373;-58
2022/04/06 09:25:33;;;;;;;12.93;8.73;;;;;;;27.36;17.07;94909.06;4991114;28;20037;-57
2022/04/06 09:28:22;;;;;;;12.32;8.75;;;;;;;27.89;15.86;94895.72;4989163;28;20031;-63
2022/04/06 09:30:48;;;;;;;14.20;9.00;;;;;;;29.60;14.77;94896.09;4995806;28;20137;-60
2022/04/06 09:33:21;;;;;;;11.80;9.23;;;;;;;30.08;14.03;94886.66;4990711;28;20089;-60
2022/04/06 09:35:48;;;;;;;12.73;8.27;;;;;;;28.68;14.40;94877.97;4990878;28;20034;-58
2022/04/06 09:38:22;;;;;;;11.80;8.50;;;;;;;30.76;13.18;94900.78;4995885;28;20034;-59
2022/04/06 09:40:51;;;;;;;11.10;8.10;;;;;;;32.73;11.45;94897.88;5006153;28;20088;-59
2022/04/06 09:43:27;;;;;;;7.68;6.82;;;;;;;34.17;10.03;94881.47;5000585;28;20018;-59
2022/04/06 09:48:52;;;;;;;13.77;7.38;;;;;;;36.45;8.71;94877.81;5004311;28;20185;-58
2022/04/06 09:51:20;;;;;;;9.68;5.85;;;;;;;36.75;7.99;94868.28;4996492;28;20041;-59
2022/04/06 09:53:48;;;;;;;7.63;5.13;;;;;;;37.41;8.08;94878.31;4989966;28;20027;-59
2022/04/06 09:56:16;;;;;;;7.30;4.78;;;;;;;37.86;8.19;94855.16;4990056;28;20030;-60
2022/04/06 09:58:43;;;;;;;10.75;6.38;;;;;;;37.20;7.88;94849.81;4990067;28;20022;-60
2022/04/06 10:01:09;;;;;;;8.52;5.90;;;;;;;38.22;7.83;94821.94;4990120;28;20030;-58
2022/04/06 10:03:39;;;;;;;8.35;5.18;;;;;;;39.51;7.28;94868.59;4988870;28;20037;-58
2022/04/06 10:06:05;;;;;;;8.18;4.60;;;;;;;39.82;6.58;94881.03;4989744;28;20027;-60
2022/04/06 10:08:31;;;;;;;14.57;5.75;;;;;;;39.39;7.18;94867.34;4989825;28;20026;-61
2022/04/06 10:10:58;;;;;;;6.68;4.05;;;;;;;39.90;7.10;94839.91;4990059;28;20061;-61
2022/04/06 10:13:24;;;;;;;7.05;4.40;;;;;;;37.61;7.67;94861.34;4989970;28;20027;-62
2022/04/06 10:15:51;;;;;;;13.13;6.32;;;;;;;37.60;7.76;94848.16;5001080;28;20026;-63
2022/04/06 10:18:17;;;;;;;10.05;5.95;;;;;;;38.05;7.57;94849.19;5009622;28;20388;-62
2022/04/06 10:20:54;;;;;;;8.98;5.88;;;;;;;37.94;7.30;94836.84;5007789;28;20062;-59
2022/04/06 10:23:31;;;;;;;10.43;5.22;;;;;;;39.28;7.05;94840.47;5008134;28;20032;-59
2022/04/06 10:26:32;;;;;;;5.57;4.70;;;;;;;40.43;6.48;94839.06;4997170;28;20620;-58
2022/04/06 10:28:57;;;;;;;7.22;5.32;;;;;;;41.02;6.25;94803.66;4972951;28;20038;-61
2022/04/06 10:31:28;;;;;;;8.15;5.45;;;;;;;41.45;6.09;94825.94;4978229;28;20537;-59
2022/04/06 10:34:19;;;;;;;7.78;5.05;;;;;;;42.13;5.84;94823.66;4976863;28;20061;-57
2022/04/06 10:37:02;;;;;;;8.25;5.60;;;;;;;42.08;5.54;94833.75;4978042;28;20030;-59
2022/04/06 10:39:29;;;;;;;8.38;6.22;;;;;;;41.48;6.21;94822.63;4981209;28;20046;-58
2022/04/06 10:42:27;;;;;;;8.40;5.45;;;;;;;42.05;5.79;94810.78;4976781;28;20034;-61
2022/04/06 10:44:53;;;;;;;7.88;5.28;;;;;;;41.63;6.26;94816.13;4976074;28;20065;-60
2022/04/06 10:47:21;;;;;;;8.63;4.68;;;;;;;39.03;6.86;94811.78;4980559;28;20054;-58
2022/04/06 10:50:15;;;;;;;7.82;5.13;;;;;;;40.00;7.08;94791.22;4979428;28;20132;-57
2022/04/06 10:52:43;;;;;;;9.65;5.05;;;;;;;40.22;6.35;94800.66;4972296;28;20050;-60
2022/04/06 10:55:11;;;;;;;6.85;5.45;;;;;;;40.19;6.62;94796.66;4977919;28;20023;-59
2022/04/06 10:57:55;;;;;;;10.30;5.60;;;;;;;41.08;6.50;94788.94;4978182;28;20034;-60
2022/04/06 11:00:21;;;;;;;9.43;5.20;;;;;;;41.77;6.04;94794.53;4964021;28;20086;-59
2022/04/06 11:02:50;;;;;;;8.20;5.38;;;;;;;41.80;6.06;94771.47;4973408;28;20113;-58
2022/04/06 11:05:47;;;;;;;11.40;5.72;;;;;;;41.74;6.16;94787.03;4955318;28;20038;-59
2022/04/06 11:11:38;;;;;;;9.77;6.10;;;;;;;41.79;6.03;94780.72;5001483;28;20565;-57
2022/04/06 11:14:04;;;;;;;10.50;5.32;;;;;;;41.87;6.20;94772.69;4986651;28;20396;-59
2022/04/06 11:16:46;;;;;;;8.80;6.10;;;;;;;41.71;6.12;94776.78;5004416;28;20025;-58
2022/04/06 11:19:15;;;;;;;9.10;5.95;;;;;;;41.83;5.81;94770.88;4996302;28;20053;-57
2022/04/06 11:21:55;;;;;;;9.50;5.47;;;;;;;42.25;5.75;94768.97;5002372;28;20021;-61
2022/04/06 11:24:24;;;;;;;8.25;5.35;;;;;;;41.93;5.90;94737.38;5008468;28;20735;-59
2022/04/06 11:26:51;;;;;;;7.53;5.22;;;;;;;40.77;6.19;94727.25;5007823;28;20026;-58
2022/04/06 11:29:17;;;;;;;11.52;7.03;;;;;;;41.45;6.16;94754.78;4982440;28;20107;-58
2022/04/06 11:31:57;;;;;;;8.63;6.97;;;;;;;40.92;6.47;94739.75;5003003;28;20144;-60
2022/04/06 11:34:34;;;;;;;9.20;5.10;;;;;;;41.06;6.19;94751.41;5004588;28;20025;-60
2022/04/06 11:37:01;;;;;;;8.95;5.53;;;;;;;41.32;6.15;94750.97;5004892;28;20105;-59
2022/04/06 11:39:33;;;;;;;10.70;5.53;;;;;;;40.79;6.25;94736.66;5003336;28;20152;-61